Time;durP1;ratioP1;P1;durP2;ratioP2;P2;SDS_P1;SDS_P2;PMS_P1;PMS_P2;Temp;Humidity;BMP_temperature;BMP_pressure;BME280_temperature;BME280_humidity;BME280_pressure;Samples;Min_cycle;Max_cycle;Signal;HPM_P1;HPM_P2
2023/10/24 02:19:19;;;;;;;17.50;8.95;;;9.00;99.90;;;;;;2603286;54;20030;31
2023/10/24 02:21:55;;;;;;;14.40;8.47;;;9.10;99.90;;;;;;2612335;46;20027;31
2023/10/24 02:37:13;;;;;;;17.15;8.15;;;9.10;99.90;;;;;;2607059;46;20026;31
2023/10/24 02:55:28;;;;;;;15.07;8.13;;;9.20;99.90;;;;;;2606690;46;20077;31
2023/10/24 03:01:20;;;;;;;14.55;9.02;;;9.20;99.90;;;;;;2603024;54;20037;31
2023/10/24 03:07:11;;;;;;;14.30;8.85;;;9.20;99.90;;;;;;2603230;54;20820;31
2023/10/24 03:13:10;;;;;;;17.10;9.53;;;9.20;99.90;;;;;;2602976;54;20030;31
2023/10/24 03:21:36;;;;;;;15.57;9.27;;;9.20;99.90;;;;;;2619481;47;21409;31
2023/10/24 03:55:31;;;;;;;15.45;8.40;;;9.30;99.90;;;;;;2602537;54;20056;31
2023/10/24 03:58:13;;;;;;;17.42;8.45;;;9.40;99.90;;;;;;2603419;46;20045;31
2023/10/24 04:01:18;;;;;;;14.10;6.90;;;9.40;99.90;;;;;;2603310;54;19957;31
2023/10/24 04:09:53;;;;;;;16.25;9.80;;;9.40;99.90;;;;;;2603062;54;20088;31
2023/10/24 04:12:38;;;;;;;18.52;9.00;;;9.40;99.90;;;;;;2603164;54;20056;31
2023/10/24 04:39:30;;;;;;;17.48;8.90;;;9.40;99.90;;;;;;2608871;46;20018;31
2023/10/24 05:15:53;;;;;;;18.35;10.80;;;9.30;99.90;;;;;;2603679;54;20026;31
2023/10/24 05:18:43;;;;;;;29.00;11.95;;;9.30;99.90;;;;;;2621580;46;20110;31
2023/10/24 05:21:18;;;;;;;20.75;9.85;;;9.30;99.90;;;;;;2619579;46;20049;31
2023/10/24 05:23:53;;;;;;;18.80;10.83;;;9.30;99.90;;;;;;2622144;46;20807;31
2023/10/24 05:29:33;;;;;;;19.38;9.93;;;9.30;99.90;;;;;;2603380;54;20029;31
2023/10/24 05:32:12;;;;;;;22.67;9.90;;;9.30;99.90;;;;;;2603495;54;20041;31
2023/10/24 05:34:49;;;;;;;19.33;9.90;;;9.40;99.90;;;;;;2621618;46;20026;31
2023/10/24 05:37:27;;;;;;;19.33;10.18;;;9.30;99.90;;;;;;2603492;54;20254;31
2023/10/24 05:40:04;;;;;;;20.83;11.00;;;9.40;99.90;;;;;;2603285;54;20109;31
2023/10/24 05:42:44;;;;;;;17.57;10.67;;;9.40;99.90;;;;;;2603428;54;20034;31
2023/10/24 05:45:27;;;;;;;22.65;9.93;;;9.40;99.90;;;;;;2603179;54;20940;31
2023/10/24 05:48:03;;;;;;;22.15;10.20;;;9.40;99.90;;;;;;2602517;54;20026;31
2023/10/24 05:50:45;;;;;;;23.20;11.47;;;9.40;99.90;;;;;;2602605;54;20030;31
2023/10/24 05:53:24;;;;;;;20.15;10.90;;;9.40;99.90;;;;;;2603093;54;19942;31
2023/10/24 05:56:01;;;;;;;23.20;10.60;;;9.30;99.90;;;;;;2603284;54;20827;31
2023/10/24 05:58:41;;;;;;;26.90;10.90;;;9.30;99.90;;;;;;2602690;54;20023;31
2023/10/24 06:01:16;;;;;;;14.60;8.65;;;9.40;99.90;;;;;;2603239;54;20022;31
2023/10/24 06:03:53;;;;;;;21.13;10.20;;;9.40;99.90;;;;;;2603321;54;20033;31
2023/10/24 06:06:32;;;;;;;16.27;10.00;;;9.40;99.90;;;;;;2603200;54;20033;31
2023/10/24 06:09:12;;;;;;;20.85;10.38;;;9.40;99.90;;;;;;2603194;54;20832;31
2023/10/24 06:11:48;;;;;;;20.15;10.05;;;9.40;99.90;;;;;;2603382;54;20030;31
2023/10/24 06:14:26;;;;;;;20.65;11.45;;;9.40;99.90;;;;;;2603187;54;20952;31
2023/10/24 06:17:03;;;;;;;16.40;9.75;;;9.50;99.90;;;;;;2603205;54;20870;31
2023/10/24 06:19:40;;;;;;;17.05;9.80;;;9.50;99.90;;;;;;2603179;54;20030;31
2023/10/24 06:22:17;;;;;;;15.65;9.82;;;9.60;99.90;;;;;;2602984;54;20026;31
2023/10/24 06:24:54;;;;;;;20.45;9.85;;;9.60;99.90;;;;;;2603250;54;20038;31
2023/10/24 06:27:31;;;;;;;21.00;11.20;;;9.70;99.90;;;;;;2602931;54;20778;31
2023/10/24 06:30:14;;;;;;;20.65;13.63;;;9.70;99.90;;;;;;2620991;46;20022;31
2023/10/24 06:32:59;;;;;;;21.25;13.05;;;9.70;99.90;;;;;;2603126;54;20026;31
2023/10/24 06:35:37;;;;;;;19.02;10.73;;;9.80;99.90;;;;;;2621492;46;20037;31
2023/10/24 06:38:19;;;;;;;21.52;11.23;;;9.80;99.90;;;;;;2603180;54;20029;31
2023/10/24 06:40:56;;;;;;;21.25;11.55;;;9.90;99.90;;;;;;2602833;54;20023;31
2023/10/24 06:43:39;;;;;;;20.30;10.60;;;9.90;99.90;;;;;;2603210;54;20081;31
2023/10/24 06:46:22;;;;;;;17.75;9.95;;;9.90;99.90;;;;;;2603280;54;20841;31
2023/10/24 06:49:00;;;;;;;20.77;10.70;;;10.00;99.90;;;;;;2621558;46;20878;31
2023/10/24 06:51:41;;;;;;;20.25;11.27;;;10.10;99.90;;;;;;2603204;54;20030;31
2023/10/24 06:54:26;;;;;;;18.30;10.60;;;10.20;99.90;;;;;;2603021;54;20034;31
2023/10/24 06:57:03;;;;;;;17.10;10.18;;;10.40;99.90;;;;;;2621414;46;20049;31
2023/10/24 06:59:39;;;;;;;;;;;10.70;99.90;;;;;;2602480;54;20801;31
2023/10/24 07:02:33;;;;;;;19.35;9.10;;;11.00;99.90;;;;;;2602237;54;20061;31
2023/10/24 07:05:16;;;;;;;16.52;9.43;;;11.30;99.90;;;;;;2621393;47;20139;31
2023/10/24 07:08:10;;;;;;;18.60;9.20;;;11.40;99.90;;;;;;2602809;54;20842;31
2023/10/24 07:11:04;;;;;;;16.98;9.45;;;11.40;99.90;;;;;;2603865;54;20862;31
2023/10/24 07:20:11;;;;;;;18.60;10.30;;;11.20;99.90;;;;;;2603675;54;20035;31
2023/10/24 07:22:47;;;;;;;18.52;9.68;;;11.50;99.90;;;;;;2622270;46;20116;31
2023/10/24 07:25:27;;;;;;;15.77;9.15;;;11.80;99.90;;;;;;2617328;46;20030;31
2023/10/24 07:31:28;;;;;;;17.80;8.85;;;11.90;99.90;;;;;;2603711;54;20961;31
2023/10/24 07:34:08;;;;;;;15.02;8.07;;;12.00;99.90;;;;;;2603662;54;20870;31
2023/10/24 07:36:52;;;;;;;16.38;8.85;;;12.00;99.90;;;;;;2603876;54;20023;31
2023/10/24 07:39:31;;;;;;;16.30;9.65;;;11.90;99.90;;;;;;2602791;54;20026;31
2023/10/24 07:42:13;;;;;;;19.45;10.10;;;11.90;99.90;;;;;;2603859;54;20027;31
2023/10/24 07:44:53;;;;;;;18.80;9.77;;;11.90;99.90;;;;;;2603654;54;20091;31
2023/10/24 07:47:29;;;;;;;18.60;9.45;;;11.90;99.90;;;;;;2603939;54;20038;31
2023/10/24 07:50:07;;;;;;;16.52;9.60;;;12.00;99.90;;;;;;2603885;54;20026;31
2023/10/24 07:52:45;;;;;;;19.37;9.13;;;12.00;99.90;;;;;;2603826;54;20851;31
2023/10/24 07:55:21;;;;;;;16.50;9.05;;;12.10;99.90;;;;;;2603694;54;20042;31
2023/10/24 07:57:56;;;;;;;;;;;12.10;99.90;;;;;;2603811;54;20840;31
2023/10/24 08:00:31;;;;;;;15.23;8.75;;;12.20;99.90;;;;;;2621600;46;19934;31
2023/10/24 08:03:08;;;;;;;25.45;10.07;;;12.30;99.90;;;;;;2603587;54;20038;31
2023/10/24 08:08:26;;;;;;;19.25;9.07;;;12.50;99.90;;;;;;2603768;54;20903;31
2023/10/24 08:11:02;;;;;;;17.40;10.00;;;12.60;99.90;;;;;;2603259;54;20026;31
2023/10/24 08:13:38;;;;;;;22.52;9.68;;;12.70;99.90;;;;;;2603559;54;20030;31
2023/10/24 08:16:14;;;;;;;19.75;9.70;;;12.80;99.90;;;;;;2602934;54;20026;31
2023/10/24 08:18:49;;;;;;;18.30;9.53;;;13.00;99.90;;;;;;2603720;54;20065;31
2023/10/24 08:21:28;;;;;;;20.35;9.80;;;13.10;99.90;;;;;;2603387;54;20037;31
2023/10/24 08:24:08;;;;;;;20.00;11.95;;;13.20;99.90;;;;;;2603612;54;20923;31
2023/10/24 08:26:46;;;;;;;19.85;10.05;;;13.40;99.90;;;;;;2603533;54;20895;31
2023/10/24 08:29:43;;;;;;;16.30;8.65;;;13.40;99.90;;;;;;2603762;54;20843;31
2023/10/24 08:32:18;;;;;;;22.08;9.45;;;13.50;99.90;;;;;;2603685;54;20026;31
2023/10/24 08:34:54;;;;;;;19.65;9.43;;;13.60;99.90;;;;;;2603470;54;20096;31
2023/10/24 08:37:32;;;;;;;;;;;13.70;99.90;;;;;;2622164;46;20031;31
2023/10/24 08:40:13;;;;;;;17.73;9.05;;;13.70;99.90;;;;;;2702337;39;20405;31
2023/10/24 08:42:49;;;;;;;18.20;9.35;;;13.80;99.90;;;;;;2602656;54;20037;31
2023/10/24 08:45:26;;;;;;;20.10;9.55;;;13.90;99.90;;;;;;2603520;54;20929;31
2023/10/24 08:48:02;;;;;;;16.57;8.00;;;14.00;99.90;;;;;;2622017;46;20534;31
2023/10/24 08:50:40;;;;;;;;;;;14.20;99.90;;;;;;2603153;54;20034;31
2023/10/24 08:53:16;;;;;;;15.82;8.18;;;14.30;99.90;;;;;;2603891;54;19934;31
2023/10/24 08:55:57;;;;;;;14.07;8.88;;;14.40;99.90;;;;;;2603568;54;20614;31
2023/10/24 08:58:33;;;;;;;18.73;9.10;;;14.60;99.90;;;;;;2621666;46;20856;31
2023/10/24 09:01:09;;;;;;;15.73;7.72;;;14.70;99.90;;;;;;2603661;54;20042;31
2023/10/24 09:03:46;;;;;;;13.52;7.80;;;14.90;99.90;;;;;;2602619;54;20805;31
2023/10/24 09:06:23;;;;;;;13.00;8.13;;;15.00;99.90;;;;;;2603521;54;20038;31
2023/10/24 09:08:59;;;;;;;13.35;7.28;;;15.00;99.90;;;;;;2602512;54;20084;31
2023/10/24 09:11:56;;;;;;;15.40;8.43;;;15.00;99.90;;;;;;2621936;46;20019;31
2023/10/24 09:14:32;;;;;;;12.07;7.47;;;15.00;99.90;;;;;;2603492;54;20027;31
2023/10/24 09:17:22;;;;;;;14.00;7.70;;;15.00;99.90;;;;;;2603552;54;20559;31
2023/10/24 09:19:59;;;;;;;16.65;8.68;;;15.00;99.90;;;;;;2621618;46;20835;31
2023/10/24 09:22:38;;;;;;;16.25;9.25;;;15.00;99.90;;;;;;2603409;54;19938;31
2023/10/24 09:25:17;;;;;;;16.73;8.93;;;14.90;99.90;;;;;;2602798;54;20878;31
2023/10/24 09:27:54;;;;;;;16.02;8.90;;;14.80;99.90;;;;;;2612673;46;22370;31
2023/10/24 09:30:29;;;;;;;16.52;9.07;;;14.90;99.90;;;;;;2603616;54;20027;31
2023/10/24 09:33:04;;;;;;;14.05;9.10;;;14.90;99.90;;;;;;2603435;54;20042;31
2023/10/24 09:35:42;;;;;;;23.00;8.60;;;15.00;99.90;;;;;;2603356;54;20050;31
2023/10/24 09:38:29;;;;;;;17.00;8.70;;;15.00;99.90;;;;;;2603367;54;20022;31
2023/10/24 09:41:04;;;;;;;17.10;8.85;;;15.00;99.90;;;;;;2603456;54;20057;31
2023/10/24 09:43:42;;;;;;;20.13;8.77;;;15.00;99.90;;;;;;2603399;54;20034;31
2023/10/24 09:46:21;;;;;;;14.03;8.83;;;15.00;99.90;;;;;;2603311;54;20910;31
2023/10/24 09:48:57;;;;;;;16.88;9.50;;;14.90;99.90;;;;;;2603049;54;20141;31
2023/10/24 09:51:35;;;;;;;;;;;14.90;99.90;;;;;;2603406;54;20888;31
2023/10/24 09:54:11;;;;;;;15.20;8.48;;;14.90;99.90;;;;;;2702103;39;20358;31
2023/10/24 09:56:48;;;;;;;14.40;8.05;;;15.00;99.90;;;;;;2603248;54;20707;31
2023/10/24 09:59:26;;;;;;;17.85;8.57;;;15.00;99.90;;;;;;2602696;54;21103;31
2023/10/24 10:02:04;;;;;;;23.70;8.27;;;15.00;99.90;;;;;;2603276;54;20905;31
2023/10/24 10:04:43;;;;;;;15.50;8.70;;;15.10;99.90;;;;;;2622229;46;20885;31
2023/10/24 10:07:20;;;;;;;15.57;8.57;;;15.10;99.90;;;;;;2603383;54;20057;31
2023/10/24 10:09:58;;;;;;;14.95;8.20;;;15.20;99.90;;;;;;2603168;54;20026;31
2023/10/24 10:12:33;;;;;;;17.65;8.30;;;15.20;99.90;;;;;;2603339;54;20057;31
2023/10/24 10:15:21;;;;;;;21.67;11.20;;;15.30;99.90;;;;;;2602718;54;25193;31
2023/10/24 10:18:00;;;;;;;18.85;9.68;;;15.30;99.90;;;;;;2603350;54;20046;31
2023/10/24 10:20:48;;;;;;;13.93;8.63;;;15.50;99.90;;;;;;2603344;54;19934;31
2023/10/24 10:23:38;;;;;;;15.02;9.02;;;15.60;99.90;;;;;;2603301;54;20048;31
2023/10/24 10:26:18;;;;;;;16.30;8.75;;;15.70;99.90;;;;;;2603056;54;20036;31
2023/10/24 10:29:09;;;;;;;15.20;8.18;;;15.70;99.90;;;;;;2701589;39;20495;31
2023/10/24 10:32:07;;;;;;;13.05;7.75;;;15.80;99.90;;;;;;2621010;46;20073;31
2023/10/24 10:35:01;;;;;;;42.47;19.02;;;15.90;99.90;;;;;;2603117;54;20022;31
2023/10/24 10:37:38;;;;;;;16.93;9.53;;;15.90;99.90;;;;;;2603083;54;20908;31
2023/10/24 10:40:30;;;;;;;18.40;8.95;;;15.80;99.90;;;;;;2603139;54;20255;31
2023/10/24 10:43:05;;;;;;;17.42;8.25;;;15.80;99.90;;;;;;2621077;46;20034;31
2023/10/24 10:45:43;;;;;;;16.10;8.55;;;15.80;99.90;;;;;;2621410;47;20022;31
2023/10/24 10:48:24;;;;;;;12.65;7.50;;;15.70;99.90;;;;;;2602997;54;20877;31
2023/10/24 10:51:00;;;;;;;19.35;8.93;;;15.70;99.90;;;;;;2602994;54;20595;31
2023/10/24 10:53:37;;;;;;;13.65;7.38;;;15.70;99.90;;;;;;2603315;54;20612;31
2023/10/24 10:56:17;;;;;;;15.18;8.90;;;15.60;99.90;;;;;;2603027;54;20033;31
2023/10/24 10:59:38;;;;;;;23.07;10.20;;;15.60;99.90;;;;;;2621836;46;20034;31
2023/10/24 11:02:23;;;;;;;9.77;7.38;;;15.60;99.90;;;;;;2603053;54;20792;31
2023/10/24 11:05:02;;;;;;;14.35;8.25;;;15.60;99.90;;;;;;2602936;54;20843;31
2023/10/24 11:07:55;;;;;;;11.43;7.15;;;15.60;99.90;;;;;;2603060;54;20036;31
2023/10/24 11:10:48;;;;;;;15.48;8.20;;;15.60;99.90;;;;;;2602940;54;20027;31
2023/10/24 11:13:39;;;;;;;13.65;7.75;;;15.70;99.90;;;;;;2621461;47;20029;31
2023/10/24 11:16:15;;;;;;;12.80;6.80;;;15.70;99.90;;;;;;2603083;54;20105;31
2023/10/24 11:19:13;;;;;;;12.50;7.35;;;15.70;99.90;;;;;;2603182;54;20029;31
2023/10/24 11:21:52;;;;;;;10.75;6.30;;;15.80;99.90;;;;;;2602849;54;20963;31
2023/10/24 11:24:29;;;;;;;13.50;7.35;;;15.80;99.90;;;;;;2621377;47;20033;31
2023/10/24 11:27:05;;;;;;;12.53;6.93;;;15.80;99.90;;;;;;2602921;54;20093;31
2023/10/24 11:29:41;;;;;;;15.15;7.20;;;15.80;99.90;;;;;;2620898;47;20030;31
2023/10/24 11:32:17;;;;;;;13.05;6.97;;;15.80;99.90;;;;;;2602838;54;20125;31
2023/10/24 11:34:53;;;;;;;17.13;6.23;;;15.80;99.90;;;;;;2603074;54;20031;31
2023/10/24 11:37:31;;;;;;;15.70;6.40;;;15.80;99.90;;;;;;2602934;54;20234;31
2023/10/24 11:40:10;;;;;;;11.48;6.10;;;15.80;99.90;;;;;;2602937;54;20065;31
2023/10/24 11:42:46;;;;;;;13.10;7.50;;;15.80;99.90;;;;;;2603210;54;20026;31
2023/10/24 11:45:23;;;;;;;12.10;6.50;;;15.80;99.90;;;;;;2602864;54;20809;31
2023/10/24 11:47:59;;;;;;;10.75;5.95;;;15.90;99.90;;;;;;2603129;54;20900;31
2023/10/24 11:50:42;;;;;;;9.13;6.00;;;15.90;99.90;;;;;;2602930;54;20794;31
2023/10/24 11:53:36;;;;;;;12.80;6.97;;;15.90;99.90;;;;;;2602826;54;20026;31
2023/10/24 11:56:13;;;;;;;10.05;6.00;;;15.90;99.90;;;;;;2603546;54;20085;31
2023/10/24 11:58:50;;;;;;;17.08;7.18;;;15.90;99.90;;;;;;2622331;46;20845;31
2023/10/24 12:01:26;;;;;;;17.80;6.50;;;16.00;99.90;;;;;;2603767;54;20030;31
2023/10/24 12:04:04;;;;;;;10.82;6.20;;;16.00;99.90;;;;;;2622267;46;20853;31
2023/10/24 12:06:42;;;;;;;10.77;6.07;;;16.00;99.90;;;;;;2603318;54;20575;31
2023/10/24 12:09:21;;;;;;;10.20;5.25;;;16.10;99.90;;;;;;2622108;46;20037;31
2023/10/24 12:11:57;;;;;;;8.85;4.70;;;16.10;99.90;;;;;;2603564;54;20865;31
2023/10/24 12:14:35;;;;;;;11.90;5.28;;;16.10;99.90;;;;;;2622005;46;19934;31
2023/10/24 12:17:11;;;;;;;9.10;5.30;;;16.10;99.90;;;;;;2603645;54;19934;31
2023/10/24 12:19:49;;;;;;;8.77;4.72;;;16.10;99.90;;;;;;2603438;54;25049;31
2023/10/24 12:22:24;;;;;;;10.20;5.10;;;16.20;99.90;;;;;;2603845;54;20037;31
2023/10/24 12:25:13;;;;;;;13.13;7.72;;;16.20;99.90;;;;;;2603637;54;20954;31
2023/10/24 12:27:49;;;;;;;7.90;4.80;;;16.30;99.90;;;;;;2603644;54;20564;31
2023/10/24 12:30:25;;;;;;;11.85;6.20;;;16.30;99.90;;;;;;2603792;54;20132;31
2023/10/24 12:33:00;;;;;;;8.55;5.20;;;16.30;99.90;;;;;;2603471;54;20939;31
2023/10/24 12:35:37;;;;;;;12.48;5.55;;;16.30;99.90;;;;;;2603605;54;20027;31
2023/10/24 12:38:12;;;;;;;11.75;5.00;;;16.30;99.90;;;;;;2603431;54;21015;31
2023/10/24 12:40:50;;;;;;;11.93;5.43;;;16.30;99.90;;;;;;2603546;54;20952;31
2023/10/24 12:43:22;;;;;;;6.93;3.90;;;16.40;99.90;;;;;;2603684;54;20057;31
2023/10/24 12:45:57;;;;;;;8.73;4.88;;;16.40;99.90;;;;;;2603758;54;20836;31
2023/10/24 12:48:33;;;;;;;8.30;4.60;;;16.40;99.90;;;;;;2621930;46;20905;31
2023/10/24 12:51:25;;;;;;;19.73;11.30;;;16.40;99.90;;;;;;2702164;39;21599;31
2023/10/24 12:54:02;;;;;;;10.37;5.20;;;16.40;99.90;;;;;;2603376;54;21125;31
2023/10/24 12:56:44;;;;;;;14.10;5.70;;;16.40;99.90;;;;;;2603362;54;20815;31
2023/10/24 12:59:21;;;;;;;7.43;4.78;;;16.40;99.90;;;;;;2603422;54;20234;31
2023/10/24 13:01:57;;;;;;;9.50;4.67;;;16.40;99.90;;;;;;2602793;54;20804;31
2023/10/24 13:04:33;;;;;;;10.52;4.50;;;16.40;99.90;;;;;;2603727;54;20242;31
2023/10/24 13:07:10;;;;;;;11.77;5.18;;;16.40;99.90;;;;;;2603457;54;20032;31
2023/10/24 13:09:47;;;;;;;8.90;4.70;;;16.40;99.90;;;;;;2603432;54;20936;31
2023/10/24 13:12:26;;;;;;;7.93;4.88;;;16.40;99.90;;;;;;2603516;54;20056;31
2023/10/24 13:15:01;;;;;;;7.90;3.97;;;16.40;99.90;;;;;;2621754;46;20851;31
2023/10/24 13:17:36;;;;;;;8.97;3.47;;;16.40;99.90;;;;;;2622367;46;20807;31
2023/10/24 13:20:16;;;;;;;6.65;3.50;;;16.40;99.90;;;;;;2603346;54;21062;31
2023/10/24 13:22:53;;;;;;;6.35;3.70;;;16.40;99.90;;;;;;2701611;39;20686;31
2023/10/24 13:25:29;;;;;;;7.80;3.47;;;16.40;99.90;;;;;;2603499;54;20061;31
2023/10/24 13:28:10;;;;;;;8.52;3.75;;;16.40;99.90;;;;;;2621903;46;20034;31
2023/10/24 13:30:45;;;;;;;10.32;3.78;;;16.50;99.90;;;;;;2603234;54;20905;31
2023/10/24 13:33:32;;;;;;;6.45;3.55;;;16.50;99.90;;;;;;2603520;54;20057;31
2023/10/24 13:36:28;;;;;;;6.22;2.95;;;16.50;99.90;;;;;;2701830;39;20485;31
2023/10/24 13:39:10;;;;;;;6.18;3.50;;;16.50;99.90;;;;;;2603158;54;20046;31
2023/10/24 13:41:44;;;;;;;7.18;3.20;;;16.50;99.90;;;;;;2621545;46;20136;31
2023/10/24 13:44:26;;;;;;;6.35;3.15;;;16.50;99.90;;;;;;2603069;54;20792;31
2023/10/24 13:47:05;;;;;;;8.95;3.10;;;16.50;99.90;;;;;;2603487;54;20847;31
2023/10/24 13:49:42;;;;;;;8.70;3.40;;;16.50;99.90;;;;;;2621807;46;20922;31
2023/10/24 13:52:22;;;;;;;10.80;3.20;;;16.50;99.90;;;;;;2701014;39;21398;31
2023/10/24 13:54:58;;;;;;;7.13;2.45;;;16.50;99.90;;;;;;2602735;54;21228;31
2023/10/24 13:57:33;;;;;;;6.38;2.70;;;16.50;99.90;;;;;;2772491;31;20627;31
2023/10/24 14:00:18;;;;;;;5.55;2.30;;;16.50;99.90;;;;;;2621302;46;20054;31
2023/10/24 14:02:55;;;;;;;7.72;2.67;;;16.50;99.90;;;;;;2791543;31;20619;31
2023/10/24 14:05:33;;;;;;;5.25;2.80;;;16.50;99.90;;;;;;2603356;54;20035;31
2023/10/24 14:08:11;;;;;;;5.50;2.45;;;16.50;99.90;;;;;;2621729;46;20030;31
2023/10/24 14:10:51;;;;;;;6.28;2.75;;;16.50;99.90;;;;;;2603246;54;20113;31
2023/10/24 14:13:28;;;;;;;5.90;2.78;;;16.50;99.90;;;;;;2603323;54;20030;31
2023/10/24 14:16:08;;;;;;;6.40;2.20;;;16.50;99.90;;;;;;2603276;54;20846;31
2023/10/24 14:18:48;;;;;;;5.55;2.45;;;16.40;99.90;;;;;;2719441;39;20517;31
2023/10/24 14:21:24;;;;;;;5.07;2.55;;;16.40;99.90;;;;;;2603261;54;20891;31
2023/10/24 14:24:04;;;;;;;6.57;2.45;;;16.40;99.90;;;;;;2603276;54;20030;31
2023/10/24 14:26:42;;;;;;;4.75;2.50;;;16.30;99.90;;;;;;2603254;54;20030;31
2023/10/24 14:31:52;;;;;;;4.20;2.50;;;16.40;99.90;;;;;;2701639;39;20470;31
2023/10/24 14:34:32;;;;;;;6.13;2.75;;;16.30;99.90;;;;;;2701619;39;20477;31
2023/10/24 14:37:10;;;;;;;7.38;3.03;;;16.30;99.90;;;;;;2603184;54;20808;31
2023/10/24 14:39:45;;;;;;;6.93;2.63;;;16.30;99.90;;;;;;2621392;46;20912;31
2023/10/24 14:42:23;;;;;;;10.00;2.80;;;16.30;99.90;;;;;;2621814;46;20804;31
2023/10/24 14:44:57;;;;;;;8.55;3.65;;;16.30;99.90;;;;;;2621601;46;20278;31
2023/10/24 14:47:37;;;;;;;6.72;3.28;;;16.20;99.90;;;;;;2603136;54;20092;31
2023/10/24 14:50:15;;;;;;;11.17;4.67;;;16.20;99.90;;;;;;2603298;54;20608;31
2023/10/24 14:52:50;;;;;;;8.65;3.95;;;16.20;99.90;;;;;;2621032;46;20886;31
2023/10/24 14:55:27;;;;;;;7.55;3.65;;;16.20;99.90;;;;;;2603008;54;20093;31
2023/10/24 14:58:05;;;;;;;7.50;4.57;;;16.20;99.90;;;;;;2603006;54;20950;31
2023/10/24 15:00:45;;;;;;;5.85;3.80;;;16.20;99.90;;;;;;2603079;54;20038;31
2023/10/24 15:03:23;;;;;;;5.90;4.20;;;16.20;99.90;;;;;;2603160;54;20993;31
2023/10/24 15:06:00;;;;;;;7.15;4.00;;;16.10;99.90;;;;;;2611324;47;20038;31
2023/10/24 15:08:36;;;;;;;8.75;4.15;;;16.10;99.90;;;;;;2602190;54;20915;31
2023/10/24 15:11:13;;;;;;;9.13;4.05;;;16.00;99.90;;;;;;2602707;54;20034;31
2023/10/24 15:13:47;;;;;;;7.05;3.65;;;16.00;99.90;;;;;;2603048;54;20057;31
2023/10/24 15:16:24;;;;;;;10.85;4.50;;;16.00;99.90;;;;;;2602886;54;20110;31
2023/10/24 15:19:04;;;;;;;8.73;4.25;;;16.00;99.90;;;;;;2621524;47;20026;31
2023/10/24 15:21:40;;;;;;;8.57;4.57;;;16.00;99.90;;;;;;2603036;54;20026;31
2023/10/24 15:24:16;;;;;;;10.52;4.55;;;15.90;99.90;;;;;;2621455;47;21441;31
2023/10/24 15:26:52;;;;;;;10.70;4.45;;;15.90;99.90;;;;;;2715255;39;21467;31
2023/10/24 15:29:28;;;;;;;;;;;15.90;99.90;;;;;;2621864;47;20027;31
2023/10/24 15:32:05;;;;;;;9.18;4.93;;;15.90;99.90;;;;;;2622260;46;20775;31
2023/10/24 15:34:43;;;;;;;11.13;5.45;;;15.80;99.90;;;;;;2622186;46;20922;31
2023/10/24 15:37:22;;;;;;;8.05;3.70;;;15.80;99.90;;;;;;2603902;54;20026;31
2023/10/24 15:39:56;;;;;;;12.90;4.85;;;15.80;99.90;;;;;;2622368;46;19935;31
2023/10/24 15:42:32;;;;;;;8.48;4.45;;;15.70;99.90;;;;;;2603447;54;20027;31
2023/10/24 15:45:14;;;;;;;8.32;5.00;;;15.70;99.90;;;;;;2603728;54;20857;31
2023/10/24 15:47:55;;;;;;;10.33;5.43;;;15.70;99.90;;;;;;2622243;46;20137;31
2023/10/24 15:50:33;;;;;;;14.27;5.85;;;15.60;99.90;;;;;;2621946;46;20937;31
2023/10/24 15:53:11;;;;;;;10.33;5.10;;;15.60;99.90;;;;;;2603586;54;20027;31
2023/10/24 15:55:54;;;;;;;11.57;5.05;;;15.60;99.90;;;;;;2603687;54;20800;31
2023/10/24 15:58:31;;;;;;;10.52;4.95;;;15.60;99.90;;;;;;2603641;54;20089;31
2023/10/24 16:01:14;;;;;;;11.43;4.75;;;15.50;99.90;;;;;;2720739;39;20504;31
2023/10/24 16:03:49;;;;;;;10.52;5.63;;;15.50;99.90;;;;;;2603648;54;20550;31
2023/10/24 16:06:27;;;;;;;11.70;5.60;;;15.60;99.90;;;;;;2621973;46;20861;31
2023/10/24 16:09:03;;;;;;;9.80;5.45;;;15.60;99.90;;;;;;2621977;46;20601;31
2023/10/24 16:11:41;;;;;;;9.80;4.85;;;15.60;99.90;;;;;;2603723;54;20052;31
2023/10/24 16:14:25;;;;;;;10.67;6.40;;;15.50;99.90;;;;;;2603843;54;20027;31
2023/10/24 16:17:02;;;;;;;12.25;5.53;;;15.50;99.90;;;;;;2603730;54;20043;31
2023/10/24 16:19:40;;;;;;;9.30;5.70;;;15.50;99.90;;;;;;2621933;46;20057;31
2023/10/24 16:22:18;;;;;;;8.60;4.75;;;15.50;99.90;;;;;;2621985;46;20142;31
2023/10/24 16:24:53;;;;;;;10.37;5.17;;;15.40;99.90;;;;;;2603474;54;20819;31
2023/10/24 16:27:28;;;;;;;8.63;4.63;;;15.30;99.90;;;;;;2603585;54;20238;31
2023/10/24 16:30:04;;;;;;;10.25;4.90;;;15.30;99.90;;;;;;2603599;54;20326;31
2023/10/24 16:32:40;;;;;;;10.05;4.75;;;15.30;99.90;;;;;;2603620;54;20981;31
2023/10/24 16:35:16;;;;;;;7.07;4.63;;;15.30;99.90;;;;;;2603302;54;20026;31
2023/10/24 16:37:59;;;;;;;7.80;4.68;;;15.30;99.90;;;;;;2602707;54;19949;31
2023/10/24 16:40:35;;;;;;;7.68;4.68;;;15.30;99.90;;;;;;2603382;54;20057;31
2023/10/24 16:43:10;;;;;;;11.27;5.82;;;15.30;99.90;;;;;;2701901;39;20521;31
2023/10/24 16:45:50;;;;;;;11.70;5.70;;;15.20;99.90;;;;;;2603398;54;20038;31
2023/10/24 16:48:27;;;;;;;11.07;6.77;;;15.20;99.90;;;;;;2603564;54;20828;31
2023/10/24 16:51:03;;;;;;;15.43;8.40;;;15.20;99.90;;;;;;2603538;54;20877;31
2023/10/24 16:53:43;;;;;;;11.80;7.20;;;15.20;99.90;;;;;;2773513;31;21552;31
2023/10/24 16:56:20;;;;;;;13.07;6.77;;;15.20;99.90;;;;;;2603403;54;20858;31
2023/10/24 16:58:55;;;;;;;9.37;5.03;;;15.20;99.90;;;;;;2603497;54;20242;31
2023/10/24 17:01:33;;;;;;;11.35;5.90;;;15.20;99.90;;;;;;2603397;54;20973;31
2023/10/24 17:04:10;;;;;;;10.27;5.78;;;15.10;99.90;;;;;;2702174;39;20442;31
2023/10/24 17:06:49;;;;;;;11.77;7.23;;;15.10;99.90;;;;;;2622027;46;20952;31
2023/10/24 17:09:29;;;;;;;14.38;8.25;;;15.10;99.90;;;;;;2622259;46;20035;31
2023/10/24 17:12:09;;;;;;;22.88;13.73;;;15.10;99.90;;;;;;2603601;54;20830;31
2023/10/24 17:14:46;;;;;;;25.93;12.67;;;15.00;99.90;;;;;;2603394;54;20888;31
2023/10/24 17:17:24;;;;;;;19.40;9.80;;;15.00;99.90;;;;;;2603787;54;20034;31
2023/10/24 17:20:08;;;;;;;16.67;8.63;;;15.00;99.90;;;;;;2603308;54;22401;31
2023/10/24 17:22:45;;;;;;;18.10;8.63;;;15.00;99.90;;;;;;2603483;54;20819;31
2023/10/24 17:25:25;;;;;;;17.65;8.20;;;14.90;99.90;;;;;;2603626;54;20033;31
2023/10/24 17:28:02;;;;;;;14.73;8.05;;;14.90;99.90;;;;;;2603328;54;19993;31
2023/10/24 17:30:38;;;;;;;21.23;11.30;;;14.90;99.90;;;;;;2603305;54;20586;31
2023/10/24 17:33:12;;;;;;;;;;;14.80;99.90;;;;;;2603454;54;20329;31
2023/10/24 17:35:52;;;;;;;30.95;17.65;;;14.90;99.90;;;;;;2603359;54;19957;31
2023/10/24 17:38:27;;;;;;;22.10;14.20;;;14.80;99.90;;;;;;2603501;54;20027;31
2023/10/24 17:41:08;;;;;;;20.98;13.35;;;14.80;99.90;;;;;;2603374;54;20022;31
2023/10/24 17:43:44;;;;;;;19.90;12.90;;;14.80;99.90;;;;;;2603456;54;20968;31
2023/10/24 17:46:21;;;;;;;19.67;11.80;;;14.80;99.90;;;;;;2603241;54;20037;31
2023/10/24 17:48:59;;;;;;;18.10;9.32;;;14.80;99.90;;;;;;2603289;54;20893;31
2023/10/24 17:51:38;;;;;;;15.05;7.38;;;14.80;99.90;;;;;;2621541;46;20022;31
2023/10/24 17:54:15;;;;;;;13.73;7.28;;;14.80;99.90;;;;;;2603238;54;20101;31
2023/10/24 17:56:55;;;;;;;15.35;7.50;;;14.90;99.90;;;;;;2603434;54;20889;31
2023/10/24 17:59:31;;;;;;;13.55;8.40;;;14.80;99.90;;;;;;2602946;54;20034;31
2023/10/24 18:02:05;;;;;;;;;;;14.80;99.90;;;;;;2622235;46;20054;31
2023/10/24 18:04:40;;;;;;;12.95;8.25;;;14.80;99.90;;;;;;2603448;54;19943;31
2023/10/24 18:07:17;;;;;;;13.07;7.57;;;14.80;99.90;;;;;;2603146;54;20939;31
2023/10/24 18:09:55;;;;;;;14.02;9.25;;;14.80;99.90;;;;;;2603055;54;20026;31
2023/10/24 18:12:35;;;;;;;18.43;10.43;;;14.80;99.90;;;;;;2621711;46;20037;31
2023/10/24 18:15:13;;;;;;;36.75;20.05;;;14.80;99.90;;;;;;2621791;46;20029;31
2023/10/24 18:17:49;;;;;;;46.35;27.48;;;14.70;99.90;;;;;;2621517;46;20051;31
2023/10/24 18:20:26;;;;;;;27.15;15.68;;;14.70;99.90;;;;;;2603279;54;20112;31
2023/10/24 18:23:03;;;;;;;33.50;19.55;;;14.70;99.90;;;;;;2603242;54;20042;31
2023/10/24 18:25:50;;;;;;;56.55;31.10;;;14.70;99.90;;;;;;2603140;54;20779;31
2023/10/24 18:28:30;;;;;;;38.42;22.50;;;14.70;99.90;;;;;;2603165;54;20108;31
2023/10/24 18:31:08;;;;;;;24.70;14.27;;;14.60;99.90;;;;;;2719978;39;20477;31
2023/10/24 18:33:44;;;;;;;18.70;11.57;;;14.60;99.90;;;;;;2603152;54;20889;31
2023/10/24 18:36:20;;;;;;;21.90;12.13;;;14.60;99.90;;;;;;2603305;54;20855;31
2023/10/24 18:38:57;;;;;;;24.00;10.85;;;14.50;99.90;;;;;;2621853;46;20081;31
2023/10/24 18:41:33;;;;;;;18.58;11.30;;;14.50;99.90;;;;;;2701926;39;20454;31
2023/10/24 18:44:15;;;;;;;19.70;10.35;;;14.50;99.90;;;;;;2603096;54;20023;31
2023/10/24 18:46:50;;;;;;;51.97;24.85;;;14.40;99.90;;;;;;2602917;54;20062;31